sensor_id;sensor_type;location;lat;lon;timestamp;P1;durP1;ratioP1;P2;durP2;ratioP2
2011;SDS011;1009;51.436;6.972;2024-02-15T00:01:38;19.53;;;8.30;;
2011;SDS011;1009;51.436;6.972;2024-02-15T00:04:05;13.10;;;8.20;;
2011;SDS011;1009;51.436;6.972;2024-02-15T00:06:33;12.27;;;7.50;;
2011;SDS011;1009;51.436;6.972;2024-02-15T00:09:00;10.33;;;7.30;;
2011;SDS011;1009;51.436;6.972;2024-02-15T00:11:27;9.83;;;6.60;;
2011;SDS011;1009;51.436;6.972;2024-02-15T00:13:54;11.20;;;7.87;;
2011;SDS011;1009;51.436;6.972;2024-02-15T00:16:21;11.90;;;8.03;;
2011;SDS011;1009;51.436;6.972;2024-02-15T00:18:48;10.10;;;7.30;;
2011;SDS011;1009;51.436;6.972;2024-02-15T00:21:15;16.20;;;7.80;;
2011;SDS011;1009;51.436;6.972;2024-02-15T00:23:43;16.17;;;7.57;;
2011;SDS011;1009;51.436;6.972;2024-02-15T00:26:10;14.53;;;7.90;;
2011;SDS011;1009;51.436;6.972;2024-02-15T00:28:37;17.10;;;7.80;;
2011;SDS011;1009;51.436;6.972;2024-02-15T00:31:04;14.10;;;8.47;;
2011;SDS011;1009;51.436;6.972;2024-02-15T00:33:31;10.93;;;8.33;;
2011;SDS011;1009;51.436;6.972;2024-02-15T00:35:57;13.60;;;7.23;;
2011;SDS011;1009;51.436;6.972;2024-02-15T00:38:24;10.83;;;8.43;;
2011;SDS011;1009;51.436;6.972;2024-02-15T00:40:52;16.87;;;8.73;;
2011;SDS011;1009;51.436;6.972;2024-02-15T00:43:19;12.27;;;8.83;;
2011;SDS011;1009;51.436;6.972;2024-02-15T00:45:45;11.47;;;8.33;;
2011;SDS011;1009;51.436;6.972;2024-02-15T00:48:12;15.20;;;8.60;;
2011;SDS011;1009;51.436;6.972;2024-02-15T00:50:39;19.93;;;9.13;;
2011;SDS011;1009;51.436;6.972;2024-02-15T00:53:05;11.67;;;8.47;;
2011;SDS011;1009;51.436;6.972;2024-02-15T00:55:32;13.17;;;8.50;;
2011;SDS011;1009;51.436;6.972;2024-02-15T00:58:00;21.10;;;10.13;;
2011;SDS011;1009;51.436;6.972;2024-02-15T01:00:27;15.20;;;9.47;;
2011;SDS011;1009;51.436;6.972;2024-02-15T01:02:54;14.60;;;10.10;;
2011;SDS011;1009;51.436;6.972;2024-02-15T01:05:21;12.03;;;8.80;;
2011;SDS011;1009;51.436;6.972;2024-02-15T01:07:49;12.70;;;8.50;;
2011;SDS011;1009;51.436;6.972;2024-02-15T01:10:16;20.60;;;10.67;;
2011;SDS011;1009;51.436;6.972;2024-02-15T01:12:42;16.83;;;9.83;;
2011;SDS011;1009;51.436;6.972;2024-02-15T01:15:11;17.43;;;9.80;;
2011;SDS011;1009;51.436;6.972;2024-02-15T01:17:38;13.00;;;8.50;;
2011;SDS011;1009;51.436;6.972;2024-02-15T01:20:04;34.07;;;11.63;;
2011;SDS011;1009;51.436;6.972;2024-02-15T01:22:32;16.20;;;9.67;;
2011;SDS011;1009;51.436;6.972;2024-02-15T01:25:00;18.80;;;11.20;;
2011;SDS011;1009;51.436;6.972;2024-02-15T01:27:26;15.63;;;10.20;;
2011;SDS011;1009;51.436;6.972;2024-02-15T01:29:54;18.07;;;10.07;;
2011;SDS011;1009;51.436;6.972;2024-02-15T01:32:21;20.00;;;10.50;;
2011;SDS011;1009;51.436;6.972;2024-02-15T01:34:48;20.57;;;9.07;;
2011;SDS011;1009;51.436;6.972;2024-02-15T01:37:18;16.30;;;10.23;;
2011;SDS011;1009;51.436;6.972;2024-02-15T01:39:46;16.97;;;9.20;;
2011;SDS011;1009;51.436;6.972;2024-02-15T01:42:12;17.83;;;9.30;;
2011;SDS011;1009;51.436;6.972;2024-02-15T01:44:39;16.90;;;9.27;;
2011;SDS011;1009;51.436;6.972;2024-02-15T01:47:08;17.90;;;9.07;;
2011;SDS011;1009;51.436;6.972;2024-02-15T01:49:37;18.50;;;9.83;;
2011;SDS011;1009;51.436;6.972;2024-02-15T01:52:04;13.17;;;8.33;;
2011;SDS011;1009;51.436;6.972;2024-02-15T01:54:33;12.43;;;9.23;;
2011;SDS011;1009;51.436;6.972;2024-02-15T01:57:00;18.40;;;8.97;;
2011;SDS011;1009;51.436;6.972;2024-02-15T01:59:28;13.17;;;7.73;;
2011;SDS011;1009;51.436;6.972;2024-02-15T02:01:56;14.10;;;9.80;;
2011;SDS011;1009;51.436;6.972;2024-02-15T02:04:23;15.83;;;9.33;;
2011;SDS011;1009;51.436;6.972;2024-02-15T02:06:51;17.27;;;10.03;;
2011;SDS011;1009;51.436;6.972;2024-02-15T02:09:20;16.97;;;9.03;;
2011;SDS011;1009;51.436;6.972;2024-02-15T02:11:47;17.20;;;8.03;;
2011;SDS011;1009;51.436;6.972;2024-02-15T02:14:15;14.03;;;9.80;;
2011;SDS011;1009;51.436;6.972;2024-02-15T02:16:43;14.43;;;8.07;;
2011;SDS011;1009;51.436;6.972;2024-02-15T02:19:11;12.30;;;8.30;;
2011;SDS011;1009;51.436;6.972;2024-02-15T02:21:38;17.07;;;9.90;;
2011;SDS011;1009;51.436;6.972;2024-02-15T02:24:08;17.07;;;8.53;;
2011;SDS011;1009;51.436;6.972;2024-02-15T02:26:40;15.00;;;8.47;;
2011;SDS011;1009;51.436;6.972;2024-02-15T02:29:07;15.60;;;8.60;;
2011;SDS011;1009;51.436;6.972;2024-02-15T02:31:35;13.07;;;9.10;;
2011;SDS011;1009;51.436;6.972;2024-02-15T02:34:02;11.33;;;7.77;;
2011;SDS011;1009;51.436;6.972;2024-02-15T02:36:31;13.10;;;7.40;;
2011;SDS011;1009;51.436;6.972;2024-02-15T02:38:58;16.43;;;7.93;;
2011;SDS011;1009;51.436;6.972;2024-02-15T02:41:25;19.70;;;8.10;;
2011;SDS011;1009;51.436;6.972;2024-02-15T02:43:54;12.20;;;7.47;;
2011;SDS011;1009;51.436;6.972;2024-02-15T02:46:21;14.70;;;7.70;;
2011;SDS011;1009;51.436;6.972;2024-02-15T02:48:48;12.53;;;7.77;;
2011;SDS011;1009;51.436;6.972;2024-02-15T02:51:15;11.00;;;7.27;;
2011;SDS011;1009;51.436;6.972;2024-02-15T02:53:42;10.80;;;7.10;;
2011;SDS011;1009;51.436;6.972;2024-02-15T02:56:08;12.03;;;6.13;;
2011;SDS011;1009;51.436;6.972;2024-02-15T02:58:35;12.10;;;6.70;;
2011;SDS011;1009;51.436;6.972;2024-02-15T03:01:03;17.57;;;7.00;;
2011;SDS011;1009;51.436;6.972;2024-02-15T03:03:31;12.33;;;7.10;;
2011;SDS011;1009;51.436;6.972;2024-02-15T03:05:58;14.17;;;7.20;;
2011;SDS011;1009;51.436;6.972;2024-02-15T03:08:24;9.00;;;5.87;;
2011;SDS011;1009;51.436;6.972;2024-02-15T03:10:51;14.37;;;6.10;;
2011;SDS011;1009;51.436;6.972;2024-02-15T03:13:18;9.53;;;6.43;;
2011;SDS011;1009;51.436;6.972;2024-02-15T03:15:45;12.27;;;6.80;;
2011;SDS011;1009;51.436;6.972;2024-02-15T03:18:15;17.10;;;6.40;;
2011;SDS011;1009;51.436;6.972;2024-02-15T03:20:42;11.23;;;5.60;;
2011;SDS011;1009;51.436;6.972;2024-02-15T03:23:09;7.20;;;5.50;;
2011;SDS011;1009;51.436;6.972;2024-02-15T03:25:36;6.03;;;5.40;;
2011;SDS011;1009;51.436;6.972;2024-02-15T03:28:05;9.43;;;5.53;;
2011;SDS011;1009;51.436;6.972;2024-02-15T03:30:32;7.60;;;4.90;;
2011;SDS011;1009;51.436;6.972;2024-02-15T03:33:00;12.00;;;5.37;;
2011;SDS011;1009;51.436;6.972;2024-02-15T03:35:31;12.20;;;5.47;;
2011;SDS011;1009;51.436;6.972;2024-02-15T03:37:58;12.37;;;6.47;;
2011;SDS011;1009;51.436;6.972;2024-02-15T03:40:25;7.20;;;4.90;;
2011;SDS011;1009;51.436;6.972;2024-02-15T03:42:52;6.97;;;3.97;;
2011;SDS011;1009;51.436;6.972;2024-02-15T03:45:19;7.50;;;4.63;;
2011;SDS011;1009;51.436;6.972;2024-02-15T03:47:49;9.53;;;6.27;;
2011;SDS011;1009;51.436;6.972;2024-02-15T03:50:16;6.47;;;4.53;;
2011;SDS011;1009;51.436;6.972;2024-02-15T03:52:45;8.87;;;5.83;;
2011;SDS011;1009;51.436;6.972;2024-02-15T03:55:11;7.70;;;4.77;;
2011;SDS011;1009;51.436;6.972;2024-02-15T03:57:39;9.50;;;4.83;;
2011;SDS011;1009;51.436;6.972;2024-02-15T04:00:08;7.80;;;4.77;;
2011;SDS011;1009;51.436;6.972;2024-02-15T04:02:36;12.03;;;5.40;;
2011;SDS011;1009;51.436;6.972;2024-02-15T04:05:05;10.40;;;5.53;;
2011;SDS011;1009;51.436;6.972;2024-02-15T04:07:34;16.30;;;5.87;;
2011;SDS011;1009;51.436;6.972;2024-02-15T04:10:03;9.67;;;4.60;;
2011;SDS011;1009;51.436;6.972;2024-02-15T04:12:31;10.07;;;5.10;;
2011;SDS011;1009;51.436;6.972;2024-02-15T04:14:58;8.67;;;4.40;;
2011;SDS011;1009;51.436;6.972;2024-02-15T04:17:30;10.07;;;5.37;;
2011;SDS011;1009;51.436;6.972;2024-02-15T04:19:57;10.10;;;4.77;;
2011;SDS011;1009;51.436;6.972;2024-02-15T04:22:25;7.30;;;5.17;;
2011;SDS011;1009;51.436;6.972;2024-02-15T04:24:52;6.90;;;4.90;;
2011;SDS011;1009;51.436;6.972;2024-02-15T04:27:20;10.93;;;5.33;;
2011;SDS011;1009;51.436;6.972;2024-02-15T04:29:47;6.23;;;5.03;;
2011;SDS011;1009;51.436;6.972;2024-02-15T04:32:15;7.03;;;4.23;;
2011;SDS011;1009;51.436;6.972;2024-02-15T04:34:44;4.83;;;3.87;;
2011;SDS011;1009;51.436;6.972;2024-02-15T04:37:11;6.57;;;3.93;;
2011;SDS011;1009;51.436;6.972;2024-02-15T04:39:38;4.93;;;4.03;;
2011;SDS011;1009;51.436;6.972;2024-02-15T04:42:05;10.30;;;4.93;;
2011;SDS011;1009;51.436;6.972;2024-02-15T04:44:37;6.17;;;3.90;;
2011;SDS011;1009;51.436;6.972;2024-02-15T04:47:04;5.80;;;4.37;;
2011;SDS011;1009;51.436;6.972;2024-02-15T04:49:31;4.80;;;2.97;;
2011;SDS011;1009;51.436;6.972;2024-02-15T04:51:58;8.27;;;4.70;;
2011;SDS011;1009;51.436;6.972;2024-02-15T04:54:26;4.93;;;3.70;;
2011;SDS011;1009;51.436;6.972;2024-02-15T04:56:54;7.07;;;3.93;;
2011;SDS011;1009;51.436;6.972;2024-02-15T04:59:22;5.40;;;3.60;;
2011;SDS011;1009;51.436;6.972;2024-02-15T05:01:52;6.90;;;3.07;;
2011;SDS011;1009;51.436;6.972;2024-02-15T05:04:19;5.43;;;2.63;;
2011;SDS011;1009;51.436;6.972;2024-02-15T05:06:45;5.47;;;3.10;;
2011;SDS011;1009;51.436;6.972;2024-02-15T05:09:12;6.57;;;3.80;;
2011;SDS011;1009;51.436;6.972;2024-02-15T05:11:39;5.83;;;3.50;;
2011;SDS011;1009;51.436;6.972;2024-02-15T05:14:08;4.30;;;2.50;;
2011;SDS011;1009;51.436;6.972;2024-02-15T05:16:36;4.60;;;3.10;;
2011;SDS011;1009;51.436;6.972;2024-02-15T05:19:08;6.93;;;3.13;;
2011;SDS011;1009;51.436;6.972;2024-02-15T05:21:37;4.90;;;2.83;;
2011;SDS011;1009;51.436;6.972;2024-02-15T05:24:04;5.67;;;2.93;;
2011;SDS011;1009;51.436;6.972;2024-02-15T05:26:31;7.20;;;3.63;;
2011;SDS011;1009;51.436;6.972;2024-02-15T05:28:58;7.10;;;3.03;;
2011;SDS011;1009;51.436;6.972;2024-02-15T05:31:25;5.90;;;3.10;;
2011;SDS011;1009;51.436;6.972;2024-02-15T05:33:52;8.40;;;3.27;;
2011;SDS011;1009;51.436;6.972;2024-02-15T05:36:21;8.37;;;2.50;;
2011;SDS011;1009;51.436;6.972;2024-02-15T05:38:53;5.17;;;2.50;;
2011;SDS011;1009;51.436;6.972;2024-02-15T05:41:20;3.80;;;3.00;;
2011;SDS011;1009;51.436;6.972;2024-02-15T05:43:47;3.73;;;3.03;;
2011;SDS011;1009;51.436;6.972;2024-02-15T05:46:14;3.20;;;1.87;;
2011;SDS011;1009;51.436;6.972;2024-02-15T05:48:41;3.87;;;2.80;;
2011;SDS011;1009;51.436;6.972;2024-02-15T05:51:07;4.23;;;2.20;;
2011;SDS011;1009;51.436;6.972;2024-02-15T05:53:36;2.57;;;1.80;;
2011;SDS011;1009;51.436;6.972;2024-02-15T05:56:03;5.40;;;2.60;;
2011;SDS011;1009;51.436;6.972;2024-02-15T05:58:31;3.40;;;2.40;;
2011;SDS011;1009;51.436;6.972;2024-02-15T06:00:58;7.10;;;2.80;;
2011;SDS011;1009;51.436;6.972;2024-02-15T06:03:27;3.17;;;2.20;;
2011;SDS011;1009;51.436;6.972;2024-02-15T06:05:53;5.03;;;2.27;;
2011;SDS011;1009;51.436;6.972;2024-02-15T06:08:23;3.53;;;2.50;;
2011;SDS011;1009;51.436;6.972;2024-02-15T06:10:52;3.43;;;2.53;;
2011;SDS011;1009;51.436;6.972;2024-02-15T06:13:19;5.13;;;2.70;;
2011;SDS011;1009;51.436;6.972;2024-02-15T06:15:46;5.07;;;2.87;;
2011;SDS011;1009;51.436;6.972;2024-02-15T06:18:17;4.97;;;2.57;;
2011;SDS011;1009;51.436;6.972;2024-02-15T06:20:46;4.33;;;2.70;;
2011;SDS011;1009;51.436;6.972;2024-02-15T06:23:14;8.20;;;2.70;;
2011;SDS011;1009;51.436;6.972;2024-02-15T06:25:41;10.23;;;4.00;;
2011;SDS011;1009;51.436;6.972;2024-02-15T06:28:10;7.00;;;3.60;;
2011;SDS011;1009;51.436;6.972;2024-02-15T06:30:59;6.10;;;2.70;;
2011;SDS011;1009;51.436;6.972;2024-02-15T06:33:52;3.20;;;2.90;;
2011;SDS011;1009;51.436;6.972;2024-02-15T06:36:39;2.93;;;2.53;;
2011;SDS011;1009;51.436;6.972;2024-02-15T06:39:23;5.73;;;2.70;;
2011;SDS011;1009;51.436;6.972;2024-02-15T06:42:06;4.70;;;2.67;;
2011;SDS011;1009;51.436;6.972;2024-02-15T06:44:35;5.23;;;3.10;;
2011;SDS011;1009;51.436;6.972;2024-02-15T06:47:02;5.40;;;2.90;;
2011;SDS011;1009;51.436;6.972;2024-02-15T06:49:29;3.90;;;2.67;;
2011;SDS011;1009;51.436;6.972;2024-02-15T06:51:56;3.10;;;2.70;;
2011;SDS011;1009;51.436;6.972;2024-02-15T06:54:24;3.10;;;2.53;;
2011;SDS011;1009;51.436;6.972;2024-02-15T06:56:50;6.03;;;2.50;;
2011;SDS011;1009;51.436;6.972;2024-02-15T06:59:19;6.80;;;2.97;;
2011;SDS011;1009;51.436;6.972;2024-02-15T07:01:48;5.33;;;2.70;;
2011;SDS011;1009;51.436;6.972;2024-02-15T07:04:17;8.13;;;2.90;;
2011;SDS011;1009;51.436;6.972;2024-02-15T07:06:44;4.30;;;2.63;;
2011;SDS011;1009;51.436;6.972;2024-02-15T07:09:13;5.27;;;2.40;;
2011;SDS011;1009;51.436;6.972;2024-02-15T07:11:42;6.60;;;2.37;;
2011;SDS011;1009;51.436;6.972;2024-02-15T07:14:09;4.00;;;2.67;;
2011;SDS011;1009;51.436;6.972;2024-02-15T07:16:36;5.43;;;2.80;;
2011;SDS011;1009;51.436;6.972;2024-02-15T07:19:04;5.80;;;3.10;;
2011;SDS011;1009;51.436;6.972;2024-02-15T07:21:32;13.03;;;3.17;;
2011;SDS011;1009;51.436;6.972;2024-02-15T07:23:59;8.60;;;3.33;;
2011;SDS011;1009;51.436;6.972;2024-02-15T07:26:25;3.30;;;2.53;;
2011;SDS011;1009;51.436;6.972;2024-02-15T07:28:53;7.00;;;2.80;;
2011;SDS011;1009;51.436;6.972;2024-02-15T07:31:21;5.83;;;3.20;;
2011;SDS011;1009;51.436;6.972;2024-02-15T07:33:48;8.13;;;3.40;;
2011;SDS011;1009;51.436;6.972;2024-02-15T07:36:18;3.50;;;2.30;;
2011;SDS011;1009;51.436;6.972;2024-02-15T07:38:46;5.47;;;2.53;;
2011;SDS011;1009;51.436;6.972;2024-02-15T07:41:13;5.70;;;2.93;;
2011;SDS011;1009;51.436;6.972;2024-02-15T07:43:40;8.43;;;3.80;;
2011;SDS011;1009;51.436;6.972;2024-02-15T07:46:07;8.50;;;4.20;;
2011;SDS011;1009;51.436;6.972;2024-02-15T07:48:40;10.17;;;3.97;;
2011;SDS011;1009;51.436;6.972;2024-02-15T07:51:10;7.83;;;3.60;;
2011;SDS011;1009;51.436;6.972;2024-02-15T07:53:39;5.37;;;3.10;;
2011;SDS011;1009;51.436;6.972;2024-02-15T07:56:07;7.10;;;3.93;;
2011;SDS011;1009;51.436;6.972;2024-02-15T07:58:35;7.77;;;4.10;;
2011;SDS011;1009;51.436;6.972;2024-02-15T08:01:06;6.40;;;3.03;;
2011;SDS011;1009;51.436;6.972;2024-02-15T08:03:33;4.80;;;3.50;;
2011;SDS011;1009;51.436;6.972;2024-02-15T08:06:00;4.93;;;2.77;;
2011;SDS011;1009;51.436;6.972;2024-02-15T08:08:31;7.20;;;4.10;;
2011;SDS011;1009;51.436;6.972;2024-02-15T08:11:01;5.73;;;3.53;;
2011;SDS011;1009;51.436;6.972;2024-02-15T08:13:28;6.43;;;3.20;;
2011;SDS011;1009;51.436;6.972;2024-02-15T08:15:55;5.97;;;3.17;;
2011;SDS011;1009;51.436;6.972;2024-02-15T08:18:22;7.30;;;3.00;;
2011;SDS011;1009;51.436;6.972;2024-02-15T08:20:49;6.77;;;2.87;;
2011;SDS011;1009;51.436;6.972;2024-02-15T08:23:16;6.07;;;3.13;;
2011;SDS011;1009;51.436;6.972;2024-02-15T08:25:43;5.50;;;2.70;;
2011;SDS011;1009;51.436;6.972;2024-02-15T08:28:11;6.70;;;2.47;;
2011;SDS011;1009;51.436;6.972;2024-02-15T08:30:38;4.47;;;2.50;;
2011;SDS011;1009;51.436;6.972;2024-02-15T08:33:06;3.60;;;2.50;;
2011;SDS011;1009;51.436;6.972;2024-02-15T08:35:35;4.57;;;3.10;;
2011;SDS011;1009;51.436;6.972;2024-02-15T08:38:02;5.00;;;2.60;;
2011;SDS011;1009;51.436;6.972;2024-02-15T08:40:30;7.13;;;2.80;;
2011;SDS011;1009;51.436;6.972;2024-02-15T08:42:57;5.90;;;3.03;;
2011;SDS011;1009;51.436;6.972;2024-02-15T08:45:25;10.00;;;3.50;;
2011;SDS011;1009;51.436;6.972;2024-02-15T08:47:52;5.43;;;3.30;;
2011;SDS011;1009;51.436;6.972;2024-02-15T08:50:19;5.93;;;2.90;;
2011;SDS011;1009;51.436;6.972;2024-02-15T08:52:48;12.53;;;4.10;;
2011;SDS011;1009;51.436;6.972;2024-02-15T08:55:15;11.20;;;4.30;;
2011;SDS011;1009;51.436;6.972;2024-02-15T08:57:42;5.13;;;3.50;;
2011;SDS011;1009;51.436;6.972;2024-02-15T09:00:09;10.67;;;4.30;;
2011;SDS011;1009;51.436;6.972;2024-02-15T09:02:40;4.57;;;3.30;;
2011;SDS011;1009;51.436;6.972;2024-02-15T09:05:07;7.43;;;3.23;;
2011;SDS011;1009;51.436;6.972;2024-02-15T09:07:34;4.67;;;3.30;;
2011;SDS011;1009;51.436;6.972;2024-02-15T09:10:01;4.83;;;2.37;;
2011;SDS011;1009;51.436;6.972;2024-02-15T09:12:28;3.70;;;2.60;;
2011;SDS011;1009;51.436;6.972;2024-02-15T09:14:56;2.40;;;2.07;;
2011;SDS011;1009;51.436;6.972;2024-02-15T09:17:23;4.10;;;2.20;;
2011;SDS011;1009;51.436;6.972;2024-02-15T09:19:52;3.17;;;2.07;;
2011;SDS011;1009;51.436;6.972;2024-02-15T09:22:19;3.20;;;2.10;;
2011;SDS011;1009;51.436;6.972;2024-02-15T09:24:46;3.27;;;2.30;;
2011;SDS011;1009;51.436;6.972;2024-02-15T09:27:13;4.07;;;2.30;;
2011;SDS011;1009;51.436;6.972;2024-02-15T09:29:39;5.53;;;2.50;;
2011;SDS011;1009;51.436;6.972;2024-02-15T09:32:07;5.87;;;2.07;;
2011;SDS011;1009;51.436;6.972;2024-02-15T09:34:34;2.20;;;1.80;;
2011;SDS011;1009;51.436;6.972;2024-02-15T09:37:02;6.63;;;3.10;;
2011;SDS011;1009;51.436;6.972;2024-02-15T09:39:30;2.47;;;1.80;;
2011;SDS011;1009;51.436;6.972;2024-02-15T09:41:57;5.40;;;1.83;;
2011;SDS011;1009;51.436;6.972;2024-02-15T09:44:24;6.17;;;2.50;;
2011;SDS011;1009;51.436;6.972;2024-02-15T09:46:55;7.13;;;2.13;;
2011;SDS011;1009;51.436;6.972;2024-02-15T09:49:29;2.23;;;1.70;;
2011;SDS011;1009;51.436;6.972;2024-02-15T09:52:00;2.47;;;2.00;;
2011;SDS011;1009;51.436;6.972;2024-02-15T09:54:31;5.40;;;1.67;;
2011;SDS011;1009;51.436;6.972;2024-02-15T09:57:01;2.83;;;1.80;;
2011;SDS011;1009;51.436;6.972;2024-02-15T09:59:27;3.10;;;1.60;;
2011;SDS011;1009;51.436;6.972;2024-02-15T10:01:56;3.17;;;1.43;;
2011;SDS011;1009;51.436;6.972;2024-02-15T10:04:24;7.43;;;2.13;;
2011;SDS011;1009;51.436;6.972;2024-02-15T10:06:51;4.50;;;1.77;;
2011;SDS011;1009;51.436;6.972;2024-02-15T10:09:25;3.57;;;1.53;;
2011;SDS011;1009;51.436;6.972;2024-02-15T10:11:54;3.03;;;1.43;;
2011;SDS011;1009;51.436;6.972;2024-02-15T10:14:21;6.53;;;1.77;;
2011;SDS011;1009;51.436;6.972;2024-02-15T10:16:48;2.70;;;1.43;;
2011;SDS011;1009;51.436;6.972;2024-02-15T10:19:14;6.23;;;1.57;;
2011;SDS011;1009;51.436;6.972;2024-02-15T10:21:42;2.13;;;1.20;;
2011;SDS011;1009;51.436;6.972;2024-02-15T10:24:09;3.53;;;1.43;;
2011;SDS011;1009;51.436;6.972;2024-02-15T10:26:37;2.93;;;1.40;;
2011;SDS011;1009;51.436;6.972;2024-02-15T10:29:07;2.07;;;1.77;;
2011;SDS011;1009;51.436;6.972;2024-02-15T10:31:35;3.60;;;1.60;;
2011;SDS011;1009;51.436;6.972;2024-02-15T10:34:03;3.00;;;1.63;;
2011;SDS011;1009;51.436;6.972;2024-02-15T10:36:31;2.70;;;1.63;;
2011;SDS011;1009;51.436;6.972;2024-02-15T10:41:46;6.30;;;1.67;;
2011;SDS011;1009;51.436;6.972;2024-02-15T10:44:17;7.60;;;1.80;;
2011;SDS011;1009;51.436;6.972;2024-02-15T10:46:45;2.23;;;1.40;;
2011;SDS011;1009;51.436;6.972;2024-02-15T10:49:15;3.37;;;1.90;;
2011;SDS011;1009;51.436;6.972;2024-02-15T10:51:43;5.53;;;1.70;;
2011;SDS011;1009;51.436;6.972;2024-02-15T10:54:11;3.63;;;1.80;;
2011;SDS011;1009;51.436;6.972;2024-02-15T10:56:43;2.53;;;1.80;;
2011;SDS011;1009;51.436;6.972;2024-02-15T10:59:15;2.60;;;1.30;;
2011;SDS011;1009;51.436;6.972;2024-02-15T11:01:43;4.50;;;1.83;;
2011;SDS011;1009;51.436;6.972;2024-02-15T11:04:13;5.20;;;1.50;;
2011;SDS011;1009;51.436;6.972;2024-02-15T11:06:42;3.00;;;1.50;;
2011;SDS011;1009;51.436;6.972;2024-02-15T11:09:09;4.93;;;1.80;;
2011;SDS011;1009;51.436;6.972;2024-02-15T11:11:38;3.70;;;2.00;;
2011;SDS011;1009;51.436;6.972;2024-02-15T11:14:26;3.30;;;2.10;;
2011;SDS011;1009;51.436;6.972;2024-02-15T11:16:54;4.33;;;1.67;;
2011;SDS011;1009;51.436;6.972;2024-02-15T11:19:42;1.47;;;1.20;;
2011;SDS011;1009;51.436;6.972;2024-02-15T11:22:13;5.70;;;1.87;;
2011;SDS011;1009;51.436;6.972;2024-02-15T11:24:47;3.33;;;2.27;;
2011;SDS011;1009;51.436;6.972;2024-02-15T11:27:23;3.03;;;1.83;;
2011;SDS011;1009;51.436;6.972;2024-02-15T11:29:53;4.73;;;2.00;;
2011;SDS011;1009;51.436;6.972;2024-02-15T11:32:40;4.83;;;2.03;;
2011;SDS011;1009;51.436;6.972;2024-02-15T11:35:09;3.47;;;1.83;;
2011;SDS011;1009;51.436;6.972;2024-02-15T11:37:51;4.13;;;2.40;;
2011;SDS011;1009;51.436;6.972;2024-02-15T11:40:25;3.07;;;1.73;;
2011;SDS011;1009;51.436;6.972;2024-02-15T11:42:54;3.10;;;2.60;;
2011;SDS011;1009;51.436;6.972;2024-02-15T11:45:23;4.00;;;2.03;;
2011;SDS011;1009;51.436;6.972;2024-02-15T11:47:52;2.90;;;1.40;;
2011;SDS011;1009;51.436;6.972;2024-02-15T11:50:21;5.87;;;1.60;;
2011;SDS011;1009;51.436;6.972;2024-02-15T11:52:48;2.70;;;2.13;;
2011;SDS011;1009;51.436;6.972;2024-02-15T11:55:19;3.60;;;2.00;;
2011;SDS011;1009;51.436;6.972;2024-02-15T11:57:56;3.00;;;1.50;;
2011;SDS011;1009;51.436;6.972;2024-02-15T12:00:43;3.90;;;1.73;;
2011;SDS011;1009;51.436;6.972;2024-02-15T12:03:27;4.60;;;1.80;;
2011;SDS011;1009;51.436;6.972;2024-02-15T12:06:12;3.20;;;1.83;;
2011;SDS011;1009;51.436;6.972;2024-02-15T12:09:00;2.30;;;1.50;;
2011;SDS011;1009;51.436;6.972;2024-02-15T12:11:44;6.80;;;2.07;;
2011;SDS011;1009;51.436;6.972;2024-02-15T12:14:28;4.20;;;2.43;;
2011;SDS011;1009;51.436;6.972;2024-02-15T12:17:25;2.40;;;1.50;;
2011;SDS011;1009;51.436;6.972;2024-02-15T12:20:09;3.37;;;1.80;;
2011;SDS011;1009;51.436;6.972;2024-02-15T12:22:40;4.10;;;1.60;;
2011;SDS011;1009;51.436;6.972;2024-02-15T12:25:13;2.73;;;1.40;;
2011;SDS011;1009;51.436;6.972;2024-02-15T12:27:41;2.10;;;1.43;;
2011;SDS011;1009;51.436;6.972;2024-02-15T12:30:12;2.93;;;1.53;;
2011;SDS011;1009;51.436;6.972;2024-02-15T12:32:41;1.80;;;1.27;;
2011;SDS011;1009;51.436;6.972;2024-02-15T12:35:11;4.03;;;1.30;;
2011;SDS011;1009;51.436;6.972;2024-02-15T12:37:41;3.73;;;1.70;;
2011;SDS011;1009;51.436;6.972;2024-02-15T12:40:11;1.87;;;0.97;;
2011;SDS011;1009;51.436;6.972;2024-02-15T12:42:41;2.73;;;1.67;;
2011;SDS011;1009;51.436;6.972;2024-02-15T12:45:14;3.53;;;1.50;;
2011;SDS011;1009;51.436;6.972;2024-02-15T12:47:47;3.43;;;1.40;;
2011;SDS011;1009;51.436;6.972;2024-02-15T12:50:16;5.33;;;1.37;;
2011;SDS011;1009;51.436;6.972;2024-02-15T12:52:45;2.67;;;1.60;;
2011;SDS011;1009;51.436;6.972;2024-02-15T12:55:14;5.13;;;1.80;;
2011;SDS011;1009;51.436;6.972;2024-02-15T12:57:43;3.30;;;1.47;;
2011;SDS011;1009;51.436;6.972;2024-02-15T13:00:12;2.50;;;1.43;;
2011;SDS011;1009;51.436;6.972;2024-02-15T13:02:43;3.80;;;1.77;;
2011;SDS011;1009;51.436;6.972;2024-02-15T13:05:11;4.10;;;1.50;;
2011;SDS011;1009;51.436;6.972;2024-02-15T13:07:38;2.80;;;1.50;;
2011;SDS011;1009;51.436;6.972;2024-02-15T13:10:05;2.23;;;1.40;;
2011;SDS011;1009;51.436;6.972;2024-02-15T13:12:33;3.60;;;1.73;;
2011;SDS011;1009;51.436;6.972;2024-02-15T13:15:01;3.23;;;1.73;;
2011;SDS011;1009;51.436;6.972;2024-02-15T13:17:29;2.00;;;1.17;;
2011;SDS011;1009;51.436;6.972;2024-02-15T13:19:56;3.33;;;1.30;;
2011;SDS011;1009;51.436;6.972;2024-02-15T13:22:30;4.30;;;1.77;;
2011;SDS011;1009;51.436;6.972;2024-02-15T13:24:58;1.63;;;1.23;;
2011;SDS011;1009;51.436;6.972;2024-02-15T13:27:24;1.97;;;1.13;;
2011;SDS011;1009;51.436;6.972;2024-02-15T13:29:51;3.40;;;1.03;;
2011;SDS011;1009;51.436;6.972;2024-02-15T13:32:18;3.27;;;1.57;;
2011;SDS011;1009;51.436;6.972;2024-02-15T13:34:46;3.03;;;1.50;;
2011;SDS011;1009;51.436;6.972;2024-02-15T13:37:16;2.10;;;1.23;;
2011;SDS011;1009;51.436;6.972;2024-02-15T13:39:46;2.43;;;1.33;;
2011;SDS011;1009;51.436;6.972;2024-02-15T13:42:13;3.53;;;1.73;;
2011;SDS011;1009;51.436;6.972;2024-02-15T13:44:40;1.97;;;1.00;;
2011;SDS011;1009;51.436;6.972;2024-02-15T13:47:06;1.57;;;0.80;;
2011;SDS011;1009;51.436;6.972;2024-02-15T13:49:33;2.87;;;1.20;;
2011;SDS011;1009;51.436;6.972;2024-02-15T13:52:00;1.97;;;1.07;;
2011;SDS011;1009;51.436;6.972;2024-02-15T13:54:28;2.83;;;1.37;;
2011;SDS011;1009;51.436;6.972;2024-02-15T13:56:57;6.80;;;1.27;;
2011;SDS011;1009;51.436;6.972;2024-02-15T13:59:25;2.10;;;1.00;;
2011;SDS011;1009;51.436;6.972;2024-02-15T14:01:53;6.27;;;1.40;;
2011;SDS011;1009;51.436;6.972;2024-02-15T14:04:20;1.83;;;0.93;;
2011;SDS011;1009;51.436;6.972;2024-02-15T14:06:47;2.37;;;1.23;;
2011;SDS011;1009;51.436;6.972;2024-02-15T14:09:14;2.03;;;1.20;;
2011;SDS011;1009;51.436;6.972;2024-02-15T14:11:42;2.83;;;1.10;;
2011;SDS011;1009;51.436;6.972;2024-02-15T14:14:10;1.60;;;1.00;;
2011;SDS011;1009;51.436;6.972;2024-02-15T14:16:37;3.23;;;1.20;;
2011;SDS011;1009;51.436;6.972;2024-02-15T14:19:05;3.87;;;1.43;;
2011;SDS011;1009;51.436;6.972;2024-02-15T14:21:32;3.17;;;1.13;;
2011;SDS011;1009;51.436;6.972;2024-02-15T14:24:04;1.90;;;0.93;;
2011;SDS011;1009;51.436;6.972;2024-02-15T14:26:33;1.00;;;0.63;;
2011;SDS011;1009;51.436;6.972;2024-02-15T14:29:00;3.00;;;1.30;;
2011;SDS011;1009;51.436;6.972;2024-02-15T14:31:29;2.03;;;1.20;;
2011;SDS011;1009;51.436;6.972;2024-02-15T14:34:14;2.27;;;0.90;;
2011;SDS011;1009;51.436;6.972;2024-02-15T14:36:42;2.90;;;1.20;;
2011;SDS011;1009;51.436;6.972;2024-02-15T14:39:10;1.57;;;0.83;;
2011;SDS011;1009;51.436;6.972;2024-02-15T14:41:38;3.87;;;1.00;;
2011;SDS011;1009;51.436;6.972;2024-02-15T14:44:05;2.30;;;1.10;;
2011;SDS011;1009;51.436;6.972;2024-02-15T14:46:33;1.03;;;0.73;;
2011;SDS011;1009;51.436;6.972;2024-02-15T14:49:01;1.30;;;0.80;;
2011;SDS011;1009;51.436;6.972;2024-02-15T14:51:29;1.83;;;0.90;;
2011;SDS011;1009;51.436;6.972;2024-02-15T14:53:57;2.87;;;1.40;;
2011;SDS011;1009;51.436;6.972;2024-02-15T14:56:24;2.97;;;1.23;;
2011;SDS011;1009;51.436;6.972;2024-02-15T14:58:51;2.60;;;1.07;;
2011;SDS011;1009;51.436;6.972;2024-02-15T15:01:18;4.03;;;1.60;;
2011;SDS011;1009;51.436;6.972;2024-02-15T15:03:53;1.90;;;1.13;;
2011;SDS011;1009;51.436;6.972;2024-02-15T15:06:23;8.33;;;2.93;;
2011;SDS011;1009;51.436;6.972;2024-02-15T15:09:10;2.27;;;1.30;;
2011;SDS011;1009;51.436;6.972;2024-02-15T15:11:54;2.97;;;1.70;;
2011;SDS011;1009;51.436;6.972;2024-02-15T15:14:39;3.03;;;1.47;;
2011;SDS011;1009;51.436;6.972;2024-02-15T15:17:06;3.93;;;1.17;;
2011;SDS011;1009;51.436;6.972;2024-02-15T15:19:34;2.83;;;1.27;;
2011;SDS011;1009;51.436;6.972;2024-02-15T15:22:02;1.57;;;0.90;;
2011;SDS011;1009;51.436;6.972;2024-02-15T15:24:30;3.43;;;1.67;;
2011;SDS011;1009;51.436;6.972;2024-02-15T15:26:57;2.53;;;1.20;;